createdAt,value
2018-10-19T00:00:52.770Z,73.32
2018-10-19T00:03:22.856Z,73.17
2018-10-19T00:05:55.235Z,72.78
2018-10-19T00:08:27.811Z,73.23
2018-10-19T00:11:01.547Z,73.13
2018-10-19T00:13:30.377Z,73.37
2018-10-19T00:16:00.094Z,71.81
2018-10-19T00:18:30.649Z,72.10
2018-10-19T00:20:59.770Z,74.32
2018-10-19T00:23:28.637Z,74.87
2018-10-19T00:26:03.073Z,76.13
2018-10-19T00:28:33.257Z,76.96
2018-10-19T00:31:02.164Z,77.16
2018-10-19T00:33:32.289Z,76.91
2018-10-19T00:36:01.992Z,78.97
2018-10-19T00:38:31.727Z,79.83
2018-10-19T00:41:01.597Z,80.94
2018-10-19T00:43:30.822Z,80.81
2018-10-19T00:45:59.721Z,80.18
2018-10-19T00:48:29.388Z,79.21
2018-10-19T00:50:59.267Z,79.34
2018-10-19T00:53:28.179Z,81.17
2018-10-19T00:55:57.097Z,80.13
2018-10-19T00:58:26.840Z,79.91
2018-10-19T01:00:56.521Z,79.70
2018-10-19T01:03:26.256Z,79.75
2018-10-19T01:05:55.629Z,80.16
2018-10-19T01:08:26.977Z,80.11
2018-10-19T01:10:58.782Z,79.36
2018-10-19T01:13:30.497Z,79.36
2018-10-19T01:16:01.579Z,79.85
2018-10-19T01:18:33.253Z,80.99
2018-10-19T01:21:04.309Z,81.03
2018-10-19T01:23:34.406Z,80.45
2018-10-19T01:26:06.727Z,80.65
2018-10-19T01:28:35.646Z,80.25
2018-10-19T01:31:05.349Z,80.21
2018-10-19T01:33:34.762Z,80.39
2018-10-19T01:36:04.487Z,80.63
2018-10-19T01:38:34.589Z,81.12
2018-10-19T01:41:04.460Z,80.72
2018-10-19T01:43:33.337Z,80.61
2018-10-19T01:46:03.530Z,80.90
2018-10-19T01:48:32.957Z,80.98
2018-10-19T01:51:02.447Z,81.07
2018-10-19T01:53:31.189Z,80.77
2018-10-19T01:56:00.065Z,80.89
2018-10-19T01:58:30.016Z,80.40
2018-10-19T02:00:59.913Z,80.47
2018-10-19T02:03:29.549Z,80.62
2018-10-19T02:05:59.657Z,80.60
2018-10-19T02:08:29.572Z,80.63
2018-10-19T02:10:59.309Z,80.51
2018-10-19T02:13:28.258Z,80.78
2018-10-19T02:15:58.021Z,81.79
2018-10-19T02:18:27.484Z,82.74
2018-10-19T02:20:56.275Z,82.59
2018-10-19T02:23:25.397Z,82.60
2018-10-19T02:25:55.192Z,83.61
2018-10-19T02:28:24.900Z,84.58
2018-10-19T02:30:54.336Z,84.36
2018-10-19T02:33:23.628Z,84.15
2018-10-19T02:35:52.968Z,83.46
2018-10-19T02:38:22.852Z,83.07
2018-10-19T02:40:52.571Z,83.34
2018-10-19T02:43:21.394Z,83.65
2018-10-19T02:45:51.157Z,85.33
2018-10-19T02:48:20.758Z,85.58
2018-10-19T02:50:50.046Z,85.75
2018-10-19T02:53:19.868Z,85.71
2018-10-19T02:55:49.385Z,85.22
2018-10-19T02:58:19.185Z,84.27
2018-10-19T03:00:48.857Z,84.37
2018-10-19T03:03:18.822Z,84.16
2018-10-19T03:05:47.578Z,85.49
2018-10-19T03:08:17.017Z,84.65
2018-10-19T03:10:46.766Z,85.10
2018-10-19T03:13:16.533Z,84.18
2018-10-19T03:15:46.340Z,85.08
2018-10-19T03:18:16.253Z,84.65
2018-10-19T03:20:45.919Z,83.90
2018-10-19T03:23:14.727Z,84.37
2018-10-19T03:25:43.645Z,84.62
2018-10-19T03:28:12.708Z,83.41
2018-10-19T03:30:42.234Z,83.87
2018-10-19T03:33:10.997Z,83.14
2018-10-19T03:35:39.907Z,83.58
2018-10-19T03:38:09.875Z,82.91
2018-10-19T03:40:39.617Z,82.11
2018-10-19T03:43:09.400Z,82.77
2018-10-19T03:45:39.159Z,82.99
2018-10-19T03:48:08.594Z,82.34
2018-10-19T03:50:37.444Z,82.36
2018-10-19T03:53:06.677Z,83.04
2018-10-19T03:55:35.579Z,83.44
2018-10-19T03:58:05.381Z,83.26
2018-10-19T04:00:35.151Z,83.46
2018-10-19T04:03:04.087Z,82.88
2018-10-19T04:05:32.824Z,83.78
2018-10-19T04:08:02.717Z,83.72
2018-10-19T04:10:31.581Z,84.22
2018-10-19T04:13:01.459Z,84.07
2018-10-19T04:15:31.214Z,83.96
2018-10-19T04:18:01.024Z,84.24
2018-10-19T04:20:30.425Z,84.05
2018-10-19T04:23:05.304Z,84.04
2018-10-19T04:25:35.250Z,84.26
2018-10-19T04:28:04.432Z,84.22
2018-10-19T04:30:34.549Z,84.12
2018-10-19T04:33:04.597Z,84.19
2018-10-19T04:35:33.441Z,84.11
2018-10-19T04:38:03.705Z,83.79
2018-10-19T04:40:33.477Z,83.16
2018-10-19T04:43:03.109Z,83.41
2018-10-19T04:45:32.833Z,84.11
2018-10-19T04:48:01.698Z,83.73
2018-10-19T04:50:31.420Z,84.18
2018-10-19T04:53:01.385Z,84.34
2018-10-19T04:55:30.261Z,83.77
2018-10-19T04:57:59.937Z,83.79
2018-10-19T05:00:29.705Z,84.07
2018-10-19T05:02:58.625Z,84.57
2018-10-19T05:05:27.607Z,85.03
2018-10-19T05:07:56.970Z,85.70
2018-10-19T05:10:25.885Z,85.73
2018-10-19T05:12:55.964Z,85.32
2018-10-19T05:15:25.032Z,86.67
2018-10-19T05:17:55.285Z,86.27
2018-10-19T05:20:25.618Z,86.17
2018-10-19T05:22:55.533Z,86.05
2018-10-19T05:25:24.480Z,85.56
2018-10-19T05:27:54.384Z,86.37
2018-10-19T05:30:23.329Z,85.82
2018-10-19T05:32:57.547Z,85.50
2018-10-19T05:35:26.525Z,84.69
2018-10-19T05:38:02.675Z,85.03
2018-10-19T05:40:31.612Z,85.52
2018-10-19T05:43:02.237Z,85.31
2018-10-19T05:45:32.480Z,84.93
2018-10-19T05:48:06.072Z,84.82
2018-10-19T05:50:36.401Z,84.97
2018-10-19T05:53:06.601Z,85.09
2018-10-19T05:55:35.562Z,85.68
2018-10-19T05:58:06.982Z,86.02
2018-10-19T06:00:37.562Z,86.31
2018-10-19T06:03:07.683Z,85.93
2018-10-19T06:05:38.356Z,86.40
2018-10-19T06:08:08.276Z,86.77
2018-10-19T06:10:37.235Z,86.56
2018-10-19T06:13:07.598Z,86.79
2018-10-19T06:15:38.642Z,87.46
2018-10-19T06:18:08.762Z,87.81
2018-10-19T06:20:38.640Z,86.67
2018-10-19T06:23:08.561Z,87.16
2018-10-19T06:25:37.967Z,86.00
2018-10-19T06:28:07.622Z,84.82
2018-10-19T06:30:37.833Z,83.74
2018-10-19T06:33:07.734Z,83.45
2018-10-19T06:35:37.564Z,83.47
2018-10-19T06:38:08.241Z,83.20
2018-10-19T06:40:37.230Z,82.27
2018-10-19T06:43:06.186Z,82.07
2018-10-19T06:45:36.448Z,81.63
2018-10-19T06:48:07.342Z,79.77
2018-10-19T06:50:37.080Z,80.14
2018-10-19T06:53:06.003Z,80.04
2018-10-19T06:55:34.940Z,78.35
2018-10-19T06:58:04.733Z,77.93
2018-10-19T07:00:34.557Z,75.64
2018-10-19T07:03:04.426Z,72.51
2018-10-19T07:05:34.294Z,68.63
2018-10-19T07:08:03.243Z,65.87
2018-10-19T07:10:32.099Z,64.58
2018-10-19T07:13:02.238Z,62.30
2018-10-19T07:15:31.985Z,61.53
2018-10-19T07:18:02.158Z,59.35
2018-10-19T07:20:31.090Z,58.41
2018-10-19T07:23:01.027Z,56.05
2018-10-19T07:25:30.809Z,56.93
2018-10-19T07:28:00.718Z,55.50
2018-10-19T07:30:29.630Z,55.72
2018-10-19T07:32:59.411Z,53.35
2018-10-19T07:35:29.597Z,53.66
2018-10-19T07:38:00.565Z,51.46
2018-10-19T07:40:29.685Z,51.96
2018-10-19T07:42:59.163Z,50.37
2018-10-19T07:45:28.990Z,48.86
2018-10-19T07:47:59.870Z,47.68
2018-10-19T07:50:29.056Z,45.75
2018-10-19T07:52:59.272Z,45.92
2018-10-19T07:55:28.198Z,46.55
2018-10-19T07:57:57.822Z,46.78
2018-10-19T08:00:27.723Z,46.67
2018-10-19T08:02:56.668Z,44.99
2018-10-19T08:05:26.421Z,42.12
2018-10-19T08:07:56.163Z,41.72
2018-10-19T08:10:25.559Z,42.45
2018-10-19T08:12:55.073Z,42.49
2018-10-19T08:15:24.865Z,42.61
2018-10-19T08:17:55.044Z,42.12
2018-10-19T08:20:25.637Z,42.91
2018-10-19T08:22:57.286Z,43.14
2018-10-19T08:25:26.656Z,42.92
2018-10-19T08:27:55.859Z,41.90
2018-10-19T08:30:26.004Z,41.99
2018-10-19T08:32:56.814Z,42.81
2018-10-19T08:35:26.390Z,41.22
2018-10-19T08:38:03.399Z,40.36
2018-10-19T08:40:33.195Z,39.62
2018-10-19T08:43:03.350Z,40.44
2018-10-19T08:45:32.324Z,39.00
2018-10-19T08:48:02.337Z,39.54
2018-10-19T08:50:32.182Z,39.31
2018-10-19T08:53:01.088Z,39.44
2018-10-19T08:55:29.981Z,40.11
2018-10-19T08:57:58.963Z,39.30
2018-10-19T09:00:27.827Z,38.45
2018-10-19T09:02:57.718Z,37.47
2018-10-19T09:05:34.771Z,38.76
2018-10-19T09:08:03.986Z,37.08
2018-10-19T09:10:42.491Z,34.79
2018-10-19T09:13:23.348Z,35.86
2018-10-19T09:15:55.834Z,34.68
2018-10-19T09:18:28.447Z,35.74
2018-10-19T09:21:01.806Z,33.16
2018-10-19T09:23:30.857Z,31.35
2018-10-19T09:26:00.804Z,30.31
2018-10-19T09:28:30.770Z,30.57
2018-10-19T09:31:00.496Z,33.03
2018-10-19T09:33:29.833Z,35.17
2018-10-19T09:35:59.318Z,36.26
2018-10-19T09:38:28.269Z,35.55
2018-10-19T09:40:57.400Z,34.12
2018-10-19T09:43:26.260Z,34.71
2018-10-19T09:45:56.061Z,34.16
2018-10-19T09:48:26.012Z,36.32
2018-10-19T09:50:55.849Z,34.79
2018-10-19T09:53:24.807Z,34.71
2018-10-19T09:55:57.245Z,35.44
2018-10-19T09:58:39.853Z,37.49
2018-10-19T10:01:21.059Z,35.29
2018-10-19T10:03:50.842Z,33.42
2018-10-19T10:06:20.103Z,34.18
2018-10-19T10:08:49.816Z,34.19
2018-10-19T10:11:19.779Z,34.11
2018-10-19T10:13:50.153Z,35.66
2018-10-19T10:16:20.146Z,36.51
2018-10-19T10:18:50.210Z,36.36
2018-10-19T10:21:21.286Z,36.78
2018-10-19T10:23:57.743Z,35.70
2018-10-19T10:26:27.645Z,34.79
2018-10-19T10:28:59.217Z,35.47
2018-10-19T10:34:41.382Z,34.86
2018-10-19T10:37:11.272Z,34.28
2018-10-19T10:39:40.245Z,33.78
2018-10-19T10:42:10.984Z,33.96
2018-10-19T10:45:07.177Z,34.26
2018-10-19T10:47:52.761Z,34.61
2018-10-19T10:50:21.989Z,33.42
2018-10-19T10:52:52.193Z,33.24
2018-10-19T10:55:43.306Z,33.45
2018-10-19T10:58:20.877Z,33.79
2018-10-19T11:01:00.131Z,34.89
2018-10-19T11:03:37.719Z,35.30
2018-10-19T11:06:06.783Z,35.34
2018-10-19T11:08:36.627Z,35.64
2018-10-19T11:11:10.584Z,34.32
2018-10-19T11:13:41.341Z,33.67
2018-10-19T11:16:12.413Z,33.27
2018-10-19T11:18:41.683Z,32.73
2018-10-19T11:21:11.525Z,33.01
2018-10-19T11:23:41.429Z,34.74
2018-10-19T11:26:11.528Z,33.56
2018-10-19T11:28:40.430Z,32.99
2018-10-19T11:31:10.378Z,33.94
2018-10-19T11:33:39.164Z,31.93
2018-10-19T11:36:08.053Z,32.30
2018-10-19T11:38:36.960Z,32.16
2018-10-19T11:41:05.897Z,31.74
2018-10-19T11:43:34.849Z,33.06
2018-10-19T11:46:03.781Z,34.35
2018-10-19T11:48:32.676Z,34.17
2018-10-19T11:51:02.721Z,34.63
2018-10-19T11:53:32.610Z,35.19
2018-10-19T11:56:02.381Z,35.13
2018-10-19T11:58:32.432Z,35.05
2018-10-19T12:01:01.461Z,34.49
2018-10-19T12:03:30.433Z,35.26
2018-10-19T12:05:59.376Z,34.09
2018-10-19T12:08:29.207Z,34.14
2018-10-19T12:10:59.036Z,33.83
2018-10-19T12:13:30.901Z,33.29
2018-10-19T12:16:00.038Z,33.56
2018-10-19T12:18:28.934Z,34.17
2018-10-19T12:20:59.239Z,34.02
2018-10-19T12:23:28.031Z,33.60
2018-10-19T12:25:56.979Z,31.98
2018-10-19T12:28:25.898Z,32.33
2018-10-19T12:30:54.847Z,32.70
2018-10-19T12:33:23.798Z,32.72
2018-10-19T12:35:52.760Z,32.93
2018-10-19T12:38:22.593Z,32.98
2018-10-19T12:40:52.873Z,33.29
2018-10-19T12:43:22.552Z,32.94
2018-10-19T12:46:31.909Z,32.95
2018-10-19T12:49:01.785Z,32.56
2018-10-19T12:51:30.691Z,32.69
2018-10-19T12:54:00.536Z,33.06
2018-10-19T12:56:29.365Z,33.24
2018-10-19T12:58:59.301Z,33.17
2018-10-19T13:01:29.993Z,33.70
2018-10-19T13:03:59.715Z,34.06
2018-10-19T13:06:28.931Z,33.42
2018-10-19T13:08:59.245Z,34.30
2018-10-19T13:11:28.468Z,34.61
2018-10-19T13:13:58.091Z,34.17
2018-10-19T13:16:28.625Z,34.14
2018-10-19T13:19:13.104Z,34.00
2018-10-19T13:24:27.306Z,34.67
2018-10-19T13:26:58.523Z,34.67
2018-10-19T13:29:43.233Z,34.92
2018-10-19T13:32:13.079Z,35.27
2018-10-19T13:34:43.854Z,35.17
2018-10-19T13:37:16.099Z,34.63
2018-10-19T13:39:46.654Z,34.23
2018-10-19T13:42:18.415Z,35.57
2018-10-19T13:44:50.045Z,35.94
2018-10-19T13:47:32.861Z,35.20
2018-10-19T13:50:02.111Z,35.71
2018-10-19T13:52:32.466Z,36.38
2018-10-19T13:56:25.604Z,37.17
2018-10-19T13:58:55.420Z,36.32
2018-10-19T14:01:24.449Z,35.55
2018-10-19T14:03:54.343Z,37.55
2018-10-19T14:06:24.156Z,36.16
2018-10-19T14:08:53.966Z,36.77
2018-10-19T14:11:23.012Z,36.90
2018-10-19T14:13:52.305Z,36.95
2018-10-19T14:16:22.098Z,35.42
2018-10-19T14:19:06.668Z,35.38
2018-10-19T14:21:35.922Z,36.14
2018-10-19T14:24:05.654Z,37.04
2018-10-19T14:26:35.552Z,37.43
2018-10-19T14:29:04.545Z,37.32
2018-10-19T14:31:33.581Z,37.39
2018-10-19T14:34:02.912Z,37.06
2018-10-19T14:36:32.406Z,38.14
2018-10-19T14:39:02.283Z,39.25
2018-10-19T14:41:31.186Z,39.34
2018-10-19T14:44:01.108Z,39.70
2018-10-19T14:46:30.984Z,40.13
2018-10-19T14:49:00.907Z,40.68
2018-10-19T14:51:29.753Z,41.17
2018-10-19T14:53:59.588Z,42.75
2018-10-19T14:56:29.724Z,44.23
2018-10-19T14:58:59.632Z,44.40
2018-10-19T15:01:28.585Z,46.01
2018-10-19T15:03:58.305Z,47.01
2018-10-19T15:06:28.102Z,47.15
2018-10-19T15:08:57.632Z,47.86
2018-10-19T15:11:26.958Z,48.81
2018-10-19T15:13:59.259Z,49.56
2018-10-19T15:16:28.426Z,49.97
2018-10-19T15:18:57.877Z,50.56
2018-10-19T15:21:27.429Z,51.06
2018-10-19T15:23:57.254Z,52.13
2018-10-19T15:26:26.125Z,52.53
2018-10-19T15:28:55.031Z,52.97
2018-10-19T15:31:23.951Z,53.47
2018-10-19T15:33:57.824Z,54.14
2018-10-19T15:36:26.966Z,54.96
2018-10-19T15:38:55.824Z,54.65
2018-10-19T15:41:24.631Z,55.70
2018-10-19T15:43:54.321Z,55.95
2018-10-19T15:46:28.464Z,56.68
2018-10-19T15:48:59.639Z,57.38
2018-10-19T15:51:29.571Z,57.63
2018-10-19T15:53:58.538Z,58.49
2018-10-19T15:56:30.745Z,58.73
2018-10-19T15:59:04.649Z,59.35
2018-10-19T16:01:47.160Z,59.97
2018-10-19T16:04:34.725Z,60.40
2018-10-19T16:07:04.008Z,60.77
2018-10-19T16:09:47.210Z,61.27
2018-10-19T16:12:21.397Z,61.92
2018-10-19T16:14:51.880Z,62.33
2018-10-19T16:17:37.816Z,62.78
2018-10-19T16:20:26.937Z,63.04
2018-10-19T16:23:10.680Z,63.12
2018-10-19T16:25:39.893Z,63.97
2018-10-19T16:28:17.714Z,64.18
2018-10-19T16:30:56.058Z,65.05
2018-10-19T16:33:31.414Z,65.15
2018-10-19T16:36:02.435Z,64.93
2018-10-19T16:38:31.288Z,65.06
2018-10-19T16:41:00.745Z,65.37
2018-10-19T16:43:30.181Z,65.56
2018-10-19T16:45:59.988Z,66.14
2018-10-19T16:48:29.680Z,66.39
2018-10-19T16:50:59.603Z,66.50
2018-10-19T16:53:28.417Z,66.65
2018-10-19T16:55:57.302Z,66.58
2018-10-19T16:58:27.460Z,67.17
2018-10-19T17:00:56.405Z,67.40
2018-10-19T17:03:25.831Z,67.30
2018-10-19T17:05:54.705Z,67.62
2018-10-19T17:08:23.661Z,68.50
2018-10-19T17:10:52.549Z,68.33
2018-10-19T17:13:21.460Z,68.45
2018-10-19T17:15:51.201Z,68.64
2018-10-19T17:18:20.106Z,68.60
2018-10-19T17:20:49.992Z,68.80
2018-10-19T17:23:19.805Z,69.18
2018-10-19T17:25:49.656Z,69.26
2018-10-19T17:28:19.345Z,69.16
2018-10-19T17:30:48.266Z,69.47
2018-10-19T17:33:17.240Z,69.87
2018-10-19T17:35:46.104Z,69.83
2018-10-19T17:38:15.777Z,70.13
2018-10-19T17:40:45.295Z,70.23
2018-10-19T17:43:15.088Z,70.56
2018-10-19T17:45:43.933Z,70.37
2018-10-19T17:48:13.891Z,70.67
2018-10-19T17:50:42.813Z,70.84
2018-10-19T17:53:12.645Z,71.08
2018-10-19T17:55:41.546Z,70.99
2018-10-19T17:58:11.343Z,70.76
2018-10-19T18:00:40.118Z,71.06
2018-10-19T18:03:09.905Z,71.23
2018-10-19T18:05:38.828Z,71.72
2018-10-19T18:08:08.658Z,71.85
2018-10-19T18:10:37.553Z,71.75
2018-10-19T18:13:07.226Z,71.98
2018-10-19T18:15:37.034Z,72.19
2018-10-19T18:18:06.073Z,72.28
2018-10-19T18:20:35.892Z,72.27
2018-10-19T18:23:05.744Z,72.32
2018-10-19T18:25:34.606Z,72.68
2018-10-19T18:28:03.444Z,72.48
2018-10-19T18:30:32.318Z,72.36
2018-10-19T18:33:02.138Z,72.74
2018-10-19T18:35:31.877Z,72.37
2018-10-19T18:38:01.624Z,72.46
2018-10-19T18:40:30.525Z,72.97
2018-10-19T18:43:00.339Z,72.72
2018-10-19T18:45:30.124Z,72.81
2018-10-19T18:47:59.888Z,72.69
2018-10-19T18:50:29.733Z,72.36
2018-10-19T18:52:58.643Z,72.97
2018-10-19T18:55:27.548Z,72.64
2018-10-19T18:57:57.231Z,72.59
2018-10-19T19:00:26.005Z,72.34
2018-10-19T19:02:54.889Z,72.88
2018-10-19T19:05:24.680Z,72.91
2018-10-19T19:07:53.613Z,73.08
2018-10-19T19:10:22.529Z,72.83
2018-10-19T19:12:57.402Z,73.09
2018-10-19T19:15:27.164Z,73.19
2018-10-19T19:17:56.880Z,73.04
2018-10-19T19:20:27.432Z,73.36
2018-10-19T19:22:56.269Z,73.11
2018-10-19T19:25:30.220Z,72.58
2018-10-19T19:28:00.090Z,73.57
2018-10-19T19:30:29.962Z,73.72
2018-10-19T19:33:03.945Z,73.93
2018-10-19T19:35:33.710Z,74.87
2018-10-19T19:38:03.527Z,75.08
2018-10-19T19:40:37.486Z,74.72
2018-10-19T19:43:07.272Z,74.47
2018-10-19T19:45:36.043Z,74.59
2018-10-19T19:48:11.008Z,75.49
2018-10-19T19:50:39.909Z,75.60
2018-10-19T19:53:09.869Z,76.98
2018-10-19T19:55:38.768Z,77.47
2018-10-19T19:58:07.649Z,76.43
2018-10-19T20:00:36.530Z,76.38
2018-10-19T20:03:06.217Z,76.43
2018-10-19T20:05:36.160Z,76.31
2018-10-19T20:08:06.255Z,77.09
2018-10-19T20:10:35.868Z,77.34
2018-10-19T20:13:05.993Z,77.81
2018-10-19T20:15:35.349Z,77.31
2018-10-19T20:18:04.364Z,77.80
2018-10-19T20:20:33.307Z,78.21
2018-10-19T20:23:02.203Z,77.36
2018-10-19T20:25:31.049Z,76.94
2018-10-19T20:28:01.214Z,77.22
2018-10-19T20:30:31.138Z,76.41
2018-10-19T20:33:01.457Z,76.83
2018-10-19T20:35:31.882Z,78.23
2018-10-19T20:38:01.784Z,79.87
2018-10-19T20:40:30.720Z,80.22
2018-10-19T20:43:00.516Z,80.55
2018-10-19T20:45:30.291Z,82.24
2018-10-19T20:48:00.092Z,82.82
2018-10-19T20:50:29.849Z,82.41
2018-10-19T20:52:59.811Z,81.43
2018-10-19T20:55:28.778Z,80.68
2018-10-19T20:57:57.645Z,80.97
2018-10-19T21:00:27.556Z,80.72
2018-10-19T21:02:57.050Z,80.68
2018-10-19T21:05:25.960Z,80.78
2018-10-19T21:07:55.873Z,80.08
2018-10-19T21:10:24.792Z,80.12
2018-10-19T21:12:53.712Z,80.40
2018-10-19T21:15:23.873Z,80.62
2018-10-19T21:17:52.778Z,80.41
2018-10-19T21:20:22.578Z,80.19
2018-10-19T21:22:51.902Z,79.99
2018-10-19T21:25:20.848Z,79.88
2018-10-19T21:27:50.918Z,80.44
2018-10-19T21:30:20.780Z,79.82
2018-10-19T21:32:49.700Z,79.84
2018-10-19T21:35:18.641Z,80.02
2018-10-19T21:37:47.529Z,79.65
2018-10-19T21:40:16.977Z,79.57
2018-10-19T21:42:46.849Z,79.46
2018-10-19T21:45:16.700Z,79.80
2018-10-19T21:47:46.840Z,80.62
2018-10-19T21:50:16.552Z,80.55
2018-10-19T21:52:45.745Z,80.54
2018-10-19T21:55:15.636Z,80.66
2018-10-19T21:57:45.272Z,81.12
2018-10-19T22:00:15.206Z,81.06
2018-10-19T22:02:46.800Z,81.06
2018-10-19T22:05:16.885Z,81.11
2018-10-19T22:07:46.921Z,81.05
2018-10-19T22:10:19.113Z,81.07
2018-10-19T22:12:49.272Z,80.79
2018-10-19T22:15:19.768Z,80.83
2018-10-19T22:17:48.513Z,80.49
2018-10-19T22:20:17.436Z,80.15
2018-10-19T22:22:47.395Z,80.27
2018-10-19T22:25:17.326Z,79.86
2018-10-19T22:27:46.934Z,79.50
2018-10-19T22:30:17.064Z,79.73
2018-10-19T22:32:46.919Z,79.78
2018-10-19T22:35:16.073Z,79.76
2018-10-19T22:37:45.428Z,79.87
2018-10-19T22:40:15.475Z,79.87
2018-10-19T22:42:45.716Z,80.04
2018-10-19T22:45:15.448Z,81.61
2018-10-19T22:47:45.348Z,81.61
2018-10-19T22:50:14.841Z,81.23
2018-10-19T22:52:44.273Z,81.17
2018-10-19T22:55:15.049Z,81.77
2018-10-19T22:57:44.974Z,81.91
2018-10-19T23:00:14.760Z,81.60
2018-10-19T23:02:43.664Z,82.16
2018-10-19T23:05:13.592Z,81.73
2018-10-19T23:07:42.473Z,81.72
2018-10-19T23:10:12.246Z,81.72
2018-10-19T23:12:42.012Z,82.09
2018-10-19T23:15:11.793Z,82.53
2018-10-19T23:17:41.833Z,81.70
2018-10-19T23:20:10.693Z,81.38
2018-10-19T23:22:39.632Z,81.47
2018-10-19T23:25:09.447Z,81.39
2018-10-19T23:27:39.430Z,81.27
2018-10-19T23:30:09.358Z,81.06
2018-10-19T23:32:38.796Z,81.81
2018-10-19T23:35:08.927Z,80.93
2018-10-19T23:37:37.885Z,81.00
2018-10-19T23:40:07.394Z,80.48
2018-10-19T23:42:37.212Z,80.77
2018-10-19T23:45:07.992Z,81.27
2018-10-19T23:47:38.372Z,82.28
2018-10-19T23:50:09.251Z,83.34
2018-10-19T23:52:39.081Z,83.89
2018-10-19T23:55:09.054Z,84.18
2018-10-19T23:57:38.019Z,84.98
